sensor_id;sensor_type;location;lat;lon;timestamp;pressure;altitude;pressure_sealevel;temperature;humidity
66880;BME280;72009;51.392;10.234;2023-11-19T00:00:04;97728.13;;;4.81;100.00
66880;BME280;72009;51.392;10.234;2023-11-19T00:00:26;97737.09;;;4.81;100.00
66880;BME280;72009;51.392;10.234;2023-11-19T00:00:46;97718.03;;;4.81;100.00
66880;BME280;72009;51.392;10.234;2023-11-19T00:01:06;97721.88;;;4.80;100.00
66880;BME280;72009;51.392;10.234;2023-11-19T00:01:27;97718.03;;;4.81;100.00
66880;BME280;72009;51.392;10.234;2023-11-19T00:01:47;97725.41;;;4.81;100.00
66880;BME280;72009;51.392;10.234;2023-11-19T00:02:08;97721.03;;;4.80;100.00
66880;BME280;72009;51.392;10.234;2023-11-19T00:02:28;97719.13;;;4.80;100.00
66880;BME280;72009;51.392;10.234;2023-11-19T00:02:49;97728.13;;;4.81;100.00
66880;BME280;72009;51.392;10.234;2023-11-19T00:03:09;97714.78;;;4.79;100.00
66880;BME280;72009;51.392;10.234;2023-11-19T00:03:29;97721.88;;;4.80;100.00
66880;BME280;72009;51.392;10.234;2023-11-19T00:03:50;97721.88;;;4.80;100.00
66880;BME280;72009;51.392;10.234;2023-11-19T00:04:10;97724.31;;;4.82;100.00
66880;BME280;72009;51.392;10.234;2023-11-19T00:04:30;97723.47;;;4.81;100.00
66880;BME280;72009;51.392;10.234;2023-11-19T00:04:50;97725.09;;;4.83;100.00
66880;BME280;72009;51.392;10.234;2023-11-19T00:05:11;97732.47;;;4.82;100.00
66880;BME280;72009;51.392;10.234;2023-11-19T00:05:31;97727.31;;;4.80;100.00
66880;BME280;72009;51.392;10.234;2023-11-19T00:05:52;97728.94;;;4.81;100.00
66880;BME280;72009;51.392;10.234;2023-11-19T00:06:12;97719.38;;;4.84;100.00
66880;BME280;72009;51.392;10.234;2023-11-19T00:06:32;97716.66;;;4.84;100.00
66880;BME280;72009;51.392;10.234;2023-11-19T00:06:53;97717.47;;;4.85;100.00
66880;BME280;72009;51.392;10.234;2023-11-19T00:07:13;97706.56;;;4.85;100.00
66880;BME280;72009;51.392;10.234;2023-11-19T00:07:35;97704.38;;;4.87;100.00
66880;BME280;72009;51.392;10.234;2023-11-19T00:07:56;97716.38;;;4.86;100.00
66880;BME280;72009;51.392;10.234;2023-11-19T00:08:16;97711.22;;;4.84;100.00
66880;BME280;72009;51.392;10.234;2023-11-19T00:08:36;97708.75;;;4.83;100.00
66880;BME280;72009;51.392;10.234;2023-11-19T00:08:57;97712.28;;;4.83;100.00
66880;BME280;72009;51.392;10.234;2023-11-19T00:09:17;97708.75;;;4.83;100.00
66880;BME280;72009;51.392;10.234;2023-11-19T00:09:37;97705.75;;;4.84;100.00
66880;BME280;72009;51.392;10.234;2023-11-19T00:09:58;97714.72;;;4.85;100.00
66880;BME280;72009;51.392;10.234;2023-11-19T00:10:18;97721.03;;;4.85;100.00
66880;BME280;72009;51.392;10.234;2023-11-19T00:10:38;97721.03;;;4.85;100.00
66880;BME280;72009;51.392;10.234;2023-11-19T00:10:59;97706.56;;;4.85;100.00
66880;BME280;72009;51.392;10.234;2023-11-19T00:11:19;97726.47;;;4.85;100.00
66880;BME280;72009;51.392;10.234;2023-11-19T00:11:39;97723.75;;;4.85;100.00
66880;BME280;72009;51.392;10.234;2023-11-19T00:12:00;97728.06;;;4.86;100.00
66880;BME280;72009;51.392;10.234;2023-11-19T00:12:20;97735.44;;;4.86;100.00
66880;BME280;72009;51.392;10.234;2023-11-19T00:12:43;97733.00;;;4.84;100.00
66880;BME280;72009;51.392;10.234;2023-11-19T00:13:03;97725.63;;;4.85;100.00
66880;BME280;72009;51.392;10.234;2023-11-19T00:13:23;97723.75;;;4.85;100.00
66880;BME280;72009;51.392;10.234;2023-11-19T00:13:44;97725.09;;;4.83;100.00
66880;BME280;72009;51.392;10.234;2023-11-19T00:14:04;97721.31;;;4.78;100.00
66880;BME280;72009;51.392;10.234;2023-11-19T00:14:25;97717.25;;;4.76;100.00
66880;BME280;72009;51.392;10.234;2023-11-19T00:14:45;97711.53;;;4.77;100.00
66880;BME280;72009;51.392;10.234;2023-11-19T00:15:06;97712.34;;;4.78;100.00
66880;BME280;72009;51.392;10.234;2023-11-19T00:15:26;97710.41;;;4.78;100.00
66880;BME280;72009;51.392;10.234;2023-11-19T00:15:47;97715.88;;;4.78;100.00
66880;BME280;72009;51.392;10.234;2023-11-19T00:16:07;97712.06;;;4.79;100.00
66880;BME280;72009;51.392;10.234;2023-11-19T00:16:28;97706.31;;;4.81;100.00
66880;BME280;72009;51.392;10.234;2023-11-19T00:16:48;97709.03;;;4.81;100.00
66880;BME280;72009;51.392;10.234;2023-11-19T00:17:09;97709.84;;;4.81;100.00
66880;BME280;72009;51.392;10.234;2023-11-19T00:17:29;97694.63;;;4.80;100.00
66880;BME280;72009;51.392;10.234;2023-11-19T00:17:49;97704.41;;;4.81;100.00
66880;BME280;72009;51.392;10.234;2023-11-19T00:18:10;97698.16;;;4.81;100.00
66880;BME280;72009;51.392;10.234;2023-11-19T00:18:30;97704.41;;;4.81;100.00
66880;BME280;72009;51.392;10.234;2023-11-19T00:18:50;97694.06;;;4.78;100.00
66880;BME280;72009;51.392;10.234;2023-11-19T00:19:11;97694.91;;;4.79;100.00
66880;BME280;72009;51.392;10.234;2023-11-19T00:19:31;97694.06;;;4.78;100.00
66880;BME280;72009;51.392;10.234;2023-11-19T00:19:51;97695.69;;;4.79;100.00
66880;BME280;72009;51.392;10.234;2023-11-19T00:20:13;97691.63;;;4.77;100.00
66880;BME280;72009;51.392;10.234;2023-11-19T00:20:33;97696.78;;;4.78;100.00
66880;BME280;72009;51.392;10.234;2023-11-19T00:20:54;97698.44;;;4.79;100.00
66880;BME280;72009;51.392;10.234;2023-11-19T00:21:14;97708.25;;;4.80;100.00
66880;BME280;72009;51.392;10.234;2023-11-19T00:21:34;97697.34;;;4.80;100.00
66880;BME280;72009;51.392;10.234;2023-11-19T00:21:55;97694.63;;;4.80;100.00
66880;BME280;72009;51.392;10.234;2023-11-19T00:22:15;97704.41;;;4.81;100.00
66880;BME280;72009;51.392;10.234;2023-11-19T00:22:35;97696.22;;;4.81;100.00
66880;BME280;72009;51.392;10.234;2023-11-19T00:22:56;97689.69;;;4.83;100.00
66880;BME280;72009;51.392;10.234;2023-11-19T00:23:16;97689.41;;;4.84;100.00
66880;BME280;72009;51.392;10.234;2023-11-19T00:23:37;97684.75;;;4.85;100.00
66880;BME280;72009;51.392;10.234;2023-11-19T00:23:57;97694.84;;;4.84;100.00
66880;BME280;72009;51.392;10.234;2023-11-19T00:24:18;97689.41;;;4.84;100.00
66880;BME280;72009;51.392;10.234;2023-11-19T00:24:38;97691.84;;;4.86;100.00
66880;BME280;72009;51.392;10.234;2023-11-19T00:24:58;97693.78;;;4.85;100.00
66880;BME280;72009;51.392;10.234;2023-11-19T00:25:20;97694.56;;;4.86;100.00
66880;BME280;72009;51.392;10.234;2023-11-19T00:25:41;97697.84;;;4.88;100.00
66880;BME280;72009;51.392;10.234;2023-11-19T00:26:01;97695.94;;;4.88;100.00
66880;BME280;72009;51.392;10.234;2023-11-19T00:26:21;97685.81;;;4.89;100.00
66880;BME280;72009;51.392;10.234;2023-11-19T00:26:42;97681.50;;;4.88;100.00
66880;BME280;72009;51.392;10.234;2023-11-19T00:27:03;97680.66;;;4.87;100.00
66880;BME280;72009;51.392;10.234;2023-11-19T00:27:23;97684.47;;;4.86;100.00
66880;BME280;72009;51.392;10.234;2023-11-19T00:27:43;97683.97;;;4.84;100.00
66880;BME280;72009;51.392;10.234;2023-11-19T00:28:04;97684.75;;;4.85;100.00
66880;BME280;72009;51.392;10.234;2023-11-19T00:28:24;97683.66;;;4.86;100.00
66880;BME280;72009;51.392;10.234;2023-11-19T00:28:44;97681.22;;;4.84;100.00
66880;BME280;72009;51.392;10.234;2023-11-19T00:29:05;97674.97;;;4.84;100.00
66880;BME280;72009;51.392;10.234;2023-11-19T00:29:25;97678.22;;;4.86;100.00
66880;BME280;72009;51.392;10.234;2023-11-19T00:29:45;97685.31;;;4.87;100.00
66880;BME280;72009;51.392;10.234;2023-11-19T00:30:06;97686.13;;;4.87;100.00
66880;BME280;72009;51.392;10.234;2023-11-19T00:30:27;97677.66;;;4.89;100.00
66880;BME280;72009;51.392;10.234;2023-11-19T00:30:47;97679.28;;;4.90;100.00
66880;BME280;72009;51.392;10.234;2023-11-19T00:31:08;97678.19;;;4.91;100.00
66880;BME280;72009;51.392;10.234;2023-11-19T00:31:28;97680.94;;;4.91;100.00
66880;BME280;72009;51.392;10.234;2023-11-19T00:31:48;97686.09;;;4.92;100.00
66880;BME280;72009;51.392;10.234;2023-11-19T00:32:08;97690.44;;;4.93;100.00
66880;BME280;72009;51.392;10.234;2023-11-19T00:32:29;97680.66;;;4.92;100.00
66880;BME280;72009;51.392;10.234;2023-11-19T00:32:49;97680.66;;;4.92;100.00
66880;BME280;72009;51.392;10.234;2023-11-19T00:33:10;97677.91;;;4.92;100.00
66880;BME280;72009;51.392;10.234;2023-11-19T00:33:30;97669.75;;;4.92;100.00
66880;BME280;72009;51.392;10.234;2023-11-19T00:33:50;97681.44;;;4.93;100.00
66880;BME280;72009;51.392;10.234;2023-11-19T00:34:11;97673.56;;;4.91;100.00
66880;BME280;72009;51.392;10.234;2023-11-19T00:34:31;97678.50;;;4.89;100.00
66880;BME280;72009;51.392;10.234;2023-11-19T00:34:51;97665.66;;;4.90;100.00
66880;BME280;72009;51.392;10.234;2023-11-19T00:35:12;97673.31;;;4.88;100.00
66880;BME280;72009;51.392;10.234;2023-11-19T00:35:32;97669.47;;;4.89;100.00
66880;BME280;72009;51.392;10.234;2023-11-19T00:35:52;97670.84;;;4.86;100.00
66880;BME280;72009;51.392;10.234;2023-11-19T00:36:13;97670.59;;;4.88;100.00
66880;BME280;72009;51.392;10.234;2023-11-19T00:36:33;97667.59;;;4.89;100.00
66880;BME280;72009;51.392;10.234;2023-11-19T00:36:53;97667.31;;;4.91;100.00
66880;BME280;72009;51.392;10.234;2023-11-19T00:37:14;97659.13;;;4.91;100.00
66880;BME280;72009;51.392;10.234;2023-11-19T00:37:34;97654.47;;;4.91;100.00
66880;BME280;72009;51.392;10.234;2023-11-19T00:37:55;97655.28;;;4.92;100.00
66880;BME280;72009;51.392;10.234;2023-11-19T00:38:16;97654.47;;;4.91;100.00
66880;BME280;72009;51.392;10.234;2023-11-19T00:38:36;97652.56;;;4.92;100.00
66880;BME280;72009;51.392;10.234;2023-11-19T00:38:56;97658.00;;;4.92;100.00
66880;BME280;72009;51.392;10.234;2023-11-19T00:39:16;97651.75;;;4.91;100.00
66880;BME280;72009;51.392;10.234;2023-11-19T00:39:37;97653.09;;;4.94;100.00
66880;BME280;72009;51.392;10.234;2023-11-19T00:39:57;97649.53;;;4.93;100.00
66880;BME280;72009;51.392;10.234;2023-11-19T00:40:17;97659.66;;;4.93;100.00
66880;BME280;72009;51.392;10.234;2023-11-19T00:40:38;97644.38;;;4.92;100.00
66880;BME280;72009;51.392;10.234;2023-11-19T00:40:58;97659.94;;;4.91;100.00
66880;BME280;72009;51.392;10.234;2023-11-19T00:41:18;97646.06;;;4.88;100.00
66880;BME280;72009;51.392;10.234;2023-11-19T00:41:39;97651.22;;;4.89;100.00
66880;BME280;72009;51.392;10.234;2023-11-19T00:41:59;97647.69;;;4.89;100.00
66880;BME280;72009;51.392;10.234;2023-11-19T00:42:19;97646.59;;;4.90;100.00
66880;BME280;72009;51.392;10.234;2023-11-19T00:42:40;97650.13;;;4.90;100.00
66880;BME280;72009;51.392;10.234;2023-11-19T00:43:00;97650.94;;;4.91;100.00
66880;BME280;72009;51.392;10.234;2023-11-19T00:43:20;97650.13;;;4.90;100.00
66880;BME280;72009;51.392;10.234;2023-11-19T00:43:40;97645.78;;;4.89;100.00
66880;BME280;72009;51.392;10.234;2023-11-19T00:44:01;97656.41;;;4.91;100.00
66880;BME280;72009;51.392;10.234;2023-11-19T00:44:21;97650.94;;;4.91;100.00
66880;BME280;72009;51.392;10.234;2023-11-19T00:44:42;97656.41;;;4.91;100.00
66880;BME280;72009;51.392;10.234;2023-11-19T00:45:02;97654.75;;;4.90;100.00
66880;BME280;72009;51.392;10.234;2023-11-19T00:45:23;97650.94;;;4.91;100.00
66880;BME280;72009;51.392;10.234;2023-11-19T00:45:43;97654.75;;;4.90;100.00
66880;BME280;72009;51.392;10.234;2023-11-19T00:46:07;97646.31;;;4.91;100.00
66880;BME280;72009;51.392;10.234;2023-11-19T00:46:27;97641.44;;;4.88;100.00
66880;BME280;72009;51.392;10.234;2023-11-19T00:46:47;97646.31;;;4.86;100.00
66880;BME280;72009;51.392;10.234;2023-11-19T00:47:08;97640.63;;;4.88;100.00
66880;BME280;72009;51.392;10.234;2023-11-19T00:47:28;97646.88;;;4.88;100.00
66880;BME280;72009;51.392;10.234;2023-11-19T00:47:48;97646.06;;;4.88;100.00
66880;BME280;72009;51.392;10.234;2023-11-19T00:48:09;97648.78;;;4.88;100.00
66880;BME280;72009;51.392;10.234;2023-11-19T00:48:29;97644.94;;;4.89;100.00
66880;BME280;72009;51.392;10.234;2023-11-19T00:48:49;97634.88;;;4.89;100.00
66880;BME280;72009;51.392;10.234;2023-11-19T00:49:10;97632.97;;;4.90;100.00
66880;BME280;72009;51.392;10.234;2023-11-19T00:49:30;97643.88;;;4.90;100.00
66880;BME280;72009;51.392;10.234;2023-11-19T00:49:51;97633.75;;;4.90;100.00
66880;BME280;72009;51.392;10.234;2023-11-19T00:50:11;97640.06;;;4.91;100.00
66880;BME280;72009;51.392;10.234;2023-11-19T00:50:32;97628.88;;;4.92;100.00
66880;BME280;72009;51.392;10.234;2023-11-19T00:50:52;97640.56;;;4.93;100.00
66880;BME280;72009;51.392;10.234;2023-11-19T00:51:12;97634.03;;;4.94;100.00
66880;BME280;72009;51.392;10.234;2023-11-19T00:51:33;97637.03;;;4.92;100.00
66880;BME280;72009;51.392;10.234;2023-11-19T00:51:53;97635.91;;;4.93;100.00
66880;BME280;72009;51.392;10.234;2023-11-19T00:52:14;97640.28;;;4.94;100.00
66880;BME280;72009;51.392;10.234;2023-11-19T00:52:34;97633.19;;;4.93;100.00
66880;BME280;72009;51.392;10.234;2023-11-19T00:52:55;97633.47;;;4.92;100.00
66880;BME280;72009;51.392;10.234;2023-11-19T00:53:15;97641.66;;;4.92;100.00
66880;BME280;72009;51.392;10.234;2023-11-19T00:53:35;97634.03;;;4.94;100.00
66880;BME280;72009;51.392;10.234;2023-11-19T00:53:56;97637.28;;;4.96;100.00
66880;BME280;72009;51.392;10.234;2023-11-19T00:54:16;97631.81;;;4.96;100.00
66880;BME280;72009;51.392;10.234;2023-11-19T00:54:36;97636.22;;;4.97;100.00
66880;BME280;72009;51.392;10.234;2023-11-19T00:54:57;97628.84;;;4.97;100.00
66880;BME280;72009;51.392;10.234;2023-11-19T00:55:17;97640.53;;;4.98;100.00
66880;BME280;72009;51.392;10.234;2023-11-19T00:55:37;97630.75;;;4.97;100.00
66880;BME280;72009;51.392;10.234;2023-11-19T00:55:58;97617.13;;;4.97;100.00
66880;BME280;72009;51.392;10.234;2023-11-19T00:56:18;97632.63;;;4.96;100.00
66880;BME280;72009;51.392;10.234;2023-11-19T00:56:39;97626.13;;;4.97;100.00
66880;BME280;72009;51.392;10.234;2023-11-19T00:56:59;97628.84;;;4.97;100.00
66880;BME280;72009;51.392;10.234;2023-11-19T00:57:19;97627.75;;;4.98;100.00
66880;BME280;72009;51.392;10.234;2023-11-19T00:57:40;97633.50;;;4.97;100.00
66880;BME280;72009;51.392;10.234;2023-11-19T00:58:00;97619.84;;;4.97;100.00
66880;BME280;72009;51.392;10.234;2023-11-19T00:58:20;97633.50;;;4.97;100.00
66880;BME280;72009;51.392;10.234;2023-11-19T00:58:41;97635.09;;;4.98;100.00
66880;BME280;72009;51.392;10.234;2023-11-19T00:59:01;97628.84;;;4.97;100.00
66880;BME280;72009;51.392;10.234;2023-11-19T00:59:21;97630.47;;;4.98;100.00
66880;BME280;72009;51.392;10.234;2023-11-19T00:59:42;97633.19;;;4.98;100.00
66880;BME280;72009;51.392;10.234;2023-11-19T01:00:05;97627.47;;;4.95;100.00
66880;BME280;72009;51.392;10.234;2023-11-19T01:00:25;97629.91;;;4.96;100.00
66880;BME280;72009;51.392;10.234;2023-11-19T01:00:46;97631.56;;;4.97;100.00
66880;BME280;72009;51.392;10.234;2023-11-19T01:01:06;97610.56;;;4.98;100.00
66880;BME280;72009;51.392;10.234;2023-11-19T01:01:27;97632.13;;;5.00;100.00
66880;BME280;72009;51.392;10.234;2023-11-19T01:01:47;97624.19;;;4.98;100.00
66880;BME280;72009;51.392;10.234;2023-11-19T01:02:08;97616.56;;;5.00;100.00
66880;BME280;72009;51.392;10.234;2023-11-19T01:02:28;97620.09;;;5.01;100.00
66880;BME280;72009;51.392;10.234;2023-11-19T01:02:48;97615.47;;;5.01;100.00
66880;BME280;72009;51.392;10.234;2023-11-19T01:03:08;97617.91;;;5.03;100.00
66880;BME280;72009;51.392;10.234;2023-11-19T01:03:29;97610.53;;;5.03;100.00
66880;BME280;72009;51.392;10.234;2023-11-19T01:03:49;97618.16;;;5.06;100.00
66880;BME280;72009;51.392;10.234;2023-11-19T01:04:09;97603.72;;;5.06;100.00
66880;BME280;72009;51.392;10.234;2023-11-19T01:04:34;97616.22;;;5.07;100.00
66880;BME280;72009;51.392;10.234;2023-11-19T01:04:54;97607.25;;;5.06;100.00
66880;BME280;72009;51.392;10.234;2023-11-19T01:05:14;97614.06;;;5.04;100.00
66880;BME280;72009;51.392;10.234;2023-11-19T01:05:35;97614.63;;;5.06;100.00
66880;BME280;72009;51.392;10.234;2023-11-19T01:05:55;97603.72;;;5.06;100.00
66880;BME280;72009;51.392;10.234;2023-11-19T01:06:26;97615.94;;;5.08;100.00
66880;BME280;72009;51.392;10.234;2023-11-19T01:06:47;97602.31;;;5.08;100.00
66880;BME280;72009;51.392;10.234;2023-11-19T01:07:07;97597.69;;;5.09;100.00
66880;BME280;72009;51.392;10.234;2023-11-19T01:07:27;97605.03;;;5.08;100.00
66880;BME280;72009;51.392;10.234;2023-11-19T01:07:48;97595.75;;;5.09;100.00
66880;BME280;72009;51.392;10.234;2023-11-19T01:08:09;97596.31;;;5.11;100.00
66880;BME280;72009;51.392;10.234;2023-11-19T01:08:29;97605.56;;;5.10;100.00
66880;BME280;72009;51.392;10.234;2023-11-19T01:08:50;97592.75;;;5.11;100.00
66880;BME280;72009;51.392;10.234;2023-11-19T01:09:10;97591.41;;;5.08;100.00
66880;BME280;72009;51.392;10.234;2023-11-19T01:09:31;97579.94;;;5.11;100.00
66880;BME280;72009;51.392;10.234;2023-11-19T01:09:52;97584.28;;;5.12;100.00
66880;BME280;72009;51.392;10.234;2023-11-19T01:10:12;97578.81;;;5.12;100.00
66880;BME280;72009;51.392;10.234;2023-11-19T01:10:33;97582.09;;;5.14;100.00
66880;BME280;72009;51.392;10.234;2023-11-19T01:10:54;97575.53;;;5.15;100.00
66880;BME280;72009;51.392;10.234;2023-11-19T01:11:23;97601.69;;;5.17;100.00
66880;BME280;72009;51.392;10.234;2023-11-19T01:11:44;97589.44;;;5.14;100.00
66880;BME280;72009;51.392;10.234;2023-11-19T01:12:05;97591.38;;;5.13;100.00
66880;BME280;72009;51.392;10.234;2023-11-19T01:12:25;97602.28;;;5.13;100.00
66880;BME280;72009;51.392;10.234;2023-11-19T01:12:46;97606.63;;;5.14;100.00
66880;BME280;72009;51.392;10.234;2023-11-19T01:13:06;97600.34;;;5.14;100.00
66880;BME280;72009;51.392;10.234;2023-11-19T01:13:26;97598.75;;;5.13;100.00
66880;BME280;72009;51.392;10.234;2023-11-19T01:13:47;97592.16;;;5.14;100.00
66880;BME280;72009;51.392;10.234;2023-11-19T01:14:08;97590.28;;;5.14;100.00
66880;BME280;72009;51.392;10.234;2023-11-19T01:14:29;97591.06;;;5.15;100.00
66880;BME280;72009;51.392;10.234;2023-11-19T01:14:49;97589.44;;;5.14;100.00
66880;BME280;72009;51.392;10.234;2023-11-19T01:15:10;97595.72;;;5.14;100.00
66880;BME280;72009;51.392;10.234;2023-11-19T01:15:30;97586.44;;;5.15;100.00
66880;BME280;72009;51.392;10.234;2023-11-19T01:15:50;97583.72;;;5.15;100.00
66880;BME280;72009;51.392;10.234;2023-11-19T01:16:11;97590.78;;;5.17;100.00
66880;BME280;72009;51.392;10.234;2023-11-19T01:16:31;97590.78;;;5.17;100.00
66880;BME280;72009;51.392;10.234;2023-11-19T01:16:51;97594.03;;;5.19;100.00
66880;BME280;72009;51.392;10.234;2023-11-19T01:17:12;97597.59;;;5.19;100.00
66880;BME280;72009;51.392;10.234;2023-11-19T01:17:32;97587.25;;;5.16;100.00
66880;BME280;72009;51.392;10.234;2023-11-19T01:17:52;97595.16;;;5.18;100.00
66880;BME280;72009;51.392;10.234;2023-11-19T01:18:13;97600.59;;;5.18;100.00
66880;BME280;72009;51.392;10.234;2023-11-19T01:18:33;97604.13;;;5.18;100.00
66880;BME280;72009;51.392;10.234;2023-11-19T01:18:54;97596.25;;;5.17;100.00
66880;BME280;72009;51.392;10.234;2023-11-19T01:19:14;97598.97;;;5.17;100.00
66880;BME280;72009;51.392;10.234;2023-11-19T01:19:34;97609.59;;;5.18;100.00
66880;BME280;72009;51.392;10.234;2023-11-19T01:19:55;97607.66;;;5.19;100.00
66880;BME280;72009;51.392;10.234;2023-11-19T01:20:15;97606.56;;;5.20;100.00
66880;BME280;72009;51.392;10.234;2023-11-19T01:20:36;97598.41;;;5.20;100.00
66880;BME280;72009;51.392;10.234;2023-11-19T01:20:57;97603.56;;;5.21;100.00
66880;BME280;72009;51.392;10.234;2023-11-19T01:21:17;97598.09;;;5.21;100.00
66880;BME280;72009;51.392;10.234;2023-11-19T01:21:37;97591.03;;;5.20;100.00
66880;BME280;72009;51.392;10.234;2023-11-19T01:21:58;97600.03;;;5.21;100.00
66880;BME280;72009;51.392;10.234;2023-11-19T01:22:18;97593.75;;;5.20;100.00
66880;BME280;72009;51.392;10.234;2023-11-19T01:22:39;97591.03;;;5.20;100.00
66880;BME280;72009;51.392;10.234;2023-11-19T01:22:59;97597.00;;;5.22;100.00
66880;BME280;72009;51.392;10.234;2023-11-19T01:23:20;97600.84;;;5.21;100.00
66880;BME280;72009;51.392;10.234;2023-11-19T01:23:41;97589.13;;;5.21;100.00
66880;BME280;72009;51.392;10.234;2023-11-19T01:24:01;97581.47;;;5.23;100.00
66880;BME280;72009;51.392;10.234;2023-11-19T01:24:22;97592.38;;;5.23;100.00
66880;BME280;72009;51.392;10.234;2023-11-19T01:24:42;97587.75;;;5.23;100.00
66880;BME280;72009;51.392;10.234;2023-11-19T01:25:02;97583.09;;;5.24;100.00
66880;BME280;72009;51.392;10.234;2023-11-19T01:25:23;97576.00;;;5.23;100.00
66880;BME280;72009;51.392;10.234;2023-11-19T01:25:43;97583.09;;;5.24;100.00
66880;BME280;72009;51.392;10.234;2023-11-19T01:26:04;97586.63;;;5.24;100.00
66880;BME280;72009;51.392;10.234;2023-11-19T01:26:24;97584.19;;;5.23;100.00
66880;BME280;72009;51.392;10.234;2023-11-19T01:26:44;97583.91;;;5.24;100.00
66880;BME280;72009;51.392;10.234;2023-11-19T01:27:05;97580.38;;;5.24;100.00
66880;BME280;72009;51.392;10.234;2023-11-19T01:27:25;97581.72;;;5.26;100.00
66880;BME280;72009;51.392;10.234;2023-11-19T01:27:45;97584.72;;;5.25;100.00
66880;BME280;72009;51.392;10.234;2023-11-19T01:28:06;97576.25;;;5.26;100.00
66880;BME280;72009;51.392;10.234;2023-11-19T01:28:26;97573.00;;;5.24;100.00
66880;BME280;72009;51.392;10.234;2023-11-19T01:28:46;97571.91;;;5.25;100.00
66880;BME280;72009;51.392;10.234;2023-11-19T01:29:06;97566.72;;;5.24;100.00
66880;BME280;72009;51.392;10.234;2023-11-19T01:29:27;97555.84;;;5.24;100.00
66880;BME280;72009;51.392;10.234;2023-11-19T01:29:47;97559.66;;;5.23;100.00
66880;BME280;72009;51.392;10.234;2023-11-19T01:30:08;97562.91;;;5.25;100.00
66880;BME280;72009;51.392;10.234;2023-11-19T01:30:28;97558.56;;;5.24;100.00
66880;BME280;72009;51.392;10.234;2023-11-19T01:30:51;97564.53;;;5.26;100.00
66880;BME280;72009;51.392;10.234;2023-11-19T01:31:15;97560.69;;;5.27;100.00
66880;BME280;72009;51.392;10.234;2023-11-19T01:31:35;97561.50;;;5.27;100.00
66880;BME280;72009;51.392;10.234;2023-11-19T01:31:55;97555.25;;;5.27;100.00
66880;BME280;72009;51.392;10.234;2023-11-19T01:32:16;97553.03;;;5.29;100.00
66880;BME280;72009;51.392;10.234;2023-11-19T01:32:36;97564.78;;;5.29;100.00
66880;BME280;72009;51.392;10.234;2023-11-19T01:32:56;97556.88;;;5.28;100.00
66880;BME280;72009;51.392;10.234;2023-11-19T01:33:17;97558.50;;;5.29;100.00
66880;BME280;72009;51.392;10.234;2023-11-19T01:33:37;97561.22;;;5.29;100.00
66880;BME280;72009;51.392;10.234;2023-11-19T01:33:58;97558.78;;;5.27;100.00
66880;BME280;72009;51.392;10.234;2023-11-19T01:34:18;97555.75;;;5.29;100.00
66880;BME280;72009;51.392;10.234;2023-11-19T01:34:38;97553.03;;;5.29;100.00
66880;BME280;72009;51.392;10.234;2023-11-19T01:34:59;97560.41;;;5.28;100.00
66880;BME280;72009;51.392;10.234;2023-11-19T01:35:19;97551.44;;;5.28;100.00
66880;BME280;72009;51.392;10.234;2023-11-19T01:35:39;97557.69;;;5.28;100.00
66880;BME280;72009;51.392;10.234;2023-11-19T01:36:00;97548.41;;;5.29;100.00
66880;BME280;72009;51.392;10.234;2023-11-19T01:36:20;97559.03;;;5.31;100.00
66880;BME280;72009;51.392;10.234;2023-11-19T01:36:40;97556.88;;;5.28;100.00
66880;BME280;72009;51.392;10.234;2023-11-19T01:37:00;97555.75;;;5.29;100.00
66880;BME280;72009;51.392;10.234;2023-11-19T01:37:21;97569.09;;;5.30;100.00
66880;BME280;72009;51.392;10.234;2023-11-19T01:37:41;97553.56;;;5.31;100.00
66880;BME280;72009;51.392;10.234;2023-11-19T01:38:01;97548.94;;;5.31;100.00
66880;BME280;72009;51.392;10.234;2023-11-19T01:38:22;97560.63;;;5.32;100.00
66880;BME280;72009;51.392;10.234;2023-11-19T01:38:42;97560.34;;;5.33;100.00
66880;BME280;72009;51.392;10.234;2023-11-19T01:39:03;97557.91;;;5.32;100.00
66880;BME280;72009;51.392;10.234;2023-11-19T01:39:23;97555.19;;;5.32;100.00
66880;BME280;72009;51.392;10.234;2023-11-19T01:39:44;97539.66;;;5.32;100.00
66880;BME280;72009;51.392;10.234;2023-11-19T01:40:04;97555.72;;;5.34;100.00
66880;BME280;72009;51.392;10.234;2023-11-19T01:40:25;97543.19;;;5.33;100.00
66880;BME280;72009;51.392;10.234;2023-11-19T01:40:45;97542.09;;;5.34;100.00
66880;BME280;72009;51.392;10.234;2023-11-19T01:41:05;97551.38;;;5.33;100.00
66880;BME280;72009;51.392;10.234;2023-11-19T01:41:26;97551.38;;;5.33;100.00
66880;BME280;72009;51.392;10.234;2023-11-19T01:41:46;97540.44;;;5.33;100.00
66880;BME280;72009;51.392;10.234;2023-11-19T01:42:06;97543.19;;;5.33;100.00
66880;BME280;72009;51.392;10.234;2023-11-19T01:42:27;97548.63;;;5.33;100.00
66880;BME280;72009;51.392;10.234;2023-11-19T01:42:47;97545.63;;;5.35;100.00
66880;BME280;72009;51.392;10.234;2023-11-19T01:43:07;97542.59;;;5.36;100.00
66880;BME280;72009;51.392;10.234;2023-11-19T01:43:34;97547.25;;;5.36;100.00
66880;BME280;72009;51.392;10.234;2023-11-19T01:43:55;97541.00;;;5.35;100.00
66880;BME280;72009;51.392;10.234;2023-11-19T01:44:15;97536.34;;;5.36;100.00
66880;BME280;72009;51.392;10.234;2023-11-19T01:44:35;97542.31;;;5.38;100.00
66880;BME280;72009;51.392;10.234;2023-11-19T01:45:00;97533.91;;;5.34;100.00
66880;BME280;72009;51.392;10.234;2023-11-19T01:45:30;97537.44;;;5.35;100.00
66880;BME280;72009;51.392;10.234;2023-11-19T01:45:51;97540.16;;;5.35;100.00
66880;BME280;72009;51.392;10.234;2023-11-19T01:46:11;97534.19;;;5.32;100.00
66880;BME280;72009;51.392;10.234;2023-11-19T01:46:32;97535.81;;;5.33;100.00
66880;BME280;72009;51.392;10.234;2023-11-19T01:46:52;97540.16;;;5.35;100.00
66880;BME280;72009;51.392;10.234;2023-11-19T01:47:13;97537.44;;;5.35;100.00
66880;BME280;72009;51.392;10.234;2023-11-19T01:47:33;97530.09;;;5.35;100.00